sensor_id;sensor_type;location;lat;lon;timestamp;temperature;humidity
60965;DHT22;46834;51.100;6.886;2022-09-16T00:00:21;14.90;48.70
60965;DHT22;46834;51.100;6.886;2022-09-16T00:02:51;14.90;48.70
60965;DHT22;46834;51.100;6.886;2022-09-16T00:05:17;14.90;48.70
60965;DHT22;46834;51.100;6.886;2022-09-16T00:07:43;14.90;48.70
60965;DHT22;46834;51.100;6.886;2022-09-16T00:10:09;14.90;48.80
60965;DHT22;46834;51.100;6.886;2022-09-16T00:12:35;14.90;48.70
60965;DHT22;46834;51.100;6.886;2022-09-16T00:15:01;14.90;48.80
60965;DHT22;46834;51.100;6.886;2022-09-16T00:17:27;14.90;48.80
60965;DHT22;46834;51.100;6.886;2022-09-16T00:19:54;14.90;48.90
60965;DHT22;46834;51.100;6.886;2022-09-16T00:22:20;14.90;48.90
60965;DHT22;46834;51.100;6.886;2022-09-16T00:24:47;14.90;48.90
60965;DHT22;46834;51.100;6.886;2022-09-16T00:27:13;14.90;48.90
60965;DHT22;46834;51.100;6.886;2022-09-16T00:29:39;14.90;48.90
60965;DHT22;46834;51.100;6.886;2022-09-16T00:32:05;14.90;48.90
60965;DHT22;46834;51.100;6.886;2022-09-16T00:34:31;14.90;48.90
60965;DHT22;46834;51.100;6.886;2022-09-16T00:36:57;14.90;48.90
60965;DHT22;46834;51.100;6.886;2022-09-16T00:39:23;14.90;48.90
60965;DHT22;46834;51.100;6.886;2022-09-16T00:41:49;14.80;48.80
60965;DHT22;46834;51.100;6.886;2022-09-16T00:47:36;14.90;49.00
60965;DHT22;46834;51.100;6.886;2022-09-16T00:53:00;14.80;48.80
60965;DHT22;46834;51.100;6.886;2022-09-16T00:55:29;14.80;48.60
60965;DHT22;46834;51.100;6.886;2022-09-16T00:58:03;14.70;48.60
60965;DHT22;46834;51.100;6.886;2022-09-16T01:00:34;14.80;48.70
60965;DHT22;46834;51.100;6.886;2022-09-16T01:03:03;14.70;48.60
60965;DHT22;46834;51.100;6.886;2022-09-16T01:05:29;14.70;48.60
60965;DHT22;46834;51.100;6.886;2022-09-16T01:07:55;14.60;48.60
60965;DHT22;46834;51.100;6.886;2022-09-16T01:10:23;14.60;48.60
60965;DHT22;46834;51.100;6.886;2022-09-16T01:12:54;14.60;48.70
60965;DHT22;46834;51.100;6.886;2022-09-16T01:15:40;14.50;48.60
60965;DHT22;46834;51.100;6.886;2022-09-16T01:18:25;14.50;48.80
60965;DHT22;46834;51.100;6.886;2022-09-16T01:24:34;14.40;48.80
60965;DHT22;46834;51.100;6.886;2022-09-16T01:30:45;14.40;49.10
60965;DHT22;46834;51.100;6.886;2022-09-16T01:36:30;14.40;49.10
60965;DHT22;46834;51.100;6.886;2022-09-16T01:39:11;14.30;48.90
60965;DHT22;46834;51.100;6.886;2022-09-16T01:50:01;14.40;49.30
60965;DHT22;46834;51.100;6.886;2022-09-16T01:55:24;14.40;49.40
60965;DHT22;46834;51.100;6.886;2022-09-16T02:00:58;14.50;49.60
60965;DHT22;46834;51.100;6.886;2022-09-16T02:03:33;14.50;49.50
60965;DHT22;46834;51.100;6.886;2022-09-16T02:06:07;14.50;49.50
60965;DHT22;46834;51.100;6.886;2022-09-16T02:08:51;14.50;49.60
60965;DHT22;46834;51.100;6.886;2022-09-16T02:11:23;14.50;49.70
60965;DHT22;46834;51.100;6.886;2022-09-16T02:13:51;14.50;49.50
60965;DHT22;46834;51.100;6.886;2022-09-16T02:16:55;14.50;49.40
60965;DHT22;46834;51.100;6.886;2022-09-16T02:19:31;14.50;49.70
60965;DHT22;46834;51.100;6.886;2022-09-16T02:22:04;14.50;49.40
60965;DHT22;46834;51.100;6.886;2022-09-16T02:24:35;14.60;49.50
60965;DHT22;46834;51.100;6.886;2022-09-16T02:27:05;14.50;49.40
60965;DHT22;46834;51.100;6.886;2022-09-16T02:29:41;14.50;49.40
60965;DHT22;46834;51.100;6.886;2022-09-16T02:32:14;14.50;49.40
60965;DHT22;46834;51.100;6.886;2022-09-16T02:34:44;14.50;49.40
60965;DHT22;46834;51.100;6.886;2022-09-16T02:37:24;14.50;49.50
60965;DHT22;46834;51.100;6.886;2022-09-16T02:39:53;14.50;49.80
60965;DHT22;46834;51.100;6.886;2022-09-16T02:42:22;14.50;49.60
60965;DHT22;46834;51.100;6.886;2022-09-16T02:44:48;14.50;49.60
60965;DHT22;46834;51.100;6.886;2022-09-16T02:56:23;14.60;49.70
60965;DHT22;46834;51.100;6.886;2022-09-16T02:58:54;14.60;49.90
60965;DHT22;46834;51.100;6.886;2022-09-16T03:01:21;14.50;49.60
60965;DHT22;46834;51.100;6.886;2022-09-16T03:03:49;14.50;49.60
60965;DHT22;46834;51.100;6.886;2022-09-16T03:06:25;14.50;49.60
60965;DHT22;46834;51.100;6.886;2022-09-16T03:08:55;14.50;49.80
60965;DHT22;46834;51.100;6.886;2022-09-16T03:20:16;14.50;49.80
60965;DHT22;46834;51.100;6.886;2022-09-16T03:29:17;14.50;49.60
60965;DHT22;46834;51.100;6.886;2022-09-16T03:32:11;14.50;49.50
60965;DHT22;46834;51.100;6.886;2022-09-16T03:37:41;14.40;49.50
60965;DHT22;46834;51.100;6.886;2022-09-16T03:40:12;14.40;49.30
60965;DHT22;46834;51.100;6.886;2022-09-16T03:42:41;14.30;49.30
60965;DHT22;46834;51.100;6.886;2022-09-16T03:45:14;14.30;49.40
60965;DHT22;46834;51.100;6.886;2022-09-16T03:47:42;14.30;49.50
60965;DHT22;46834;51.100;6.886;2022-09-16T03:50:10;14.20;49.40
60965;DHT22;46834;51.100;6.886;2022-09-16T03:52:36;14.20;49.50
60965;DHT22;46834;51.100;6.886;2022-09-16T03:55:02;14.20;49.60
60965;DHT22;46834;51.100;6.886;2022-09-16T03:57:28;14.20;49.60
60965;DHT22;46834;51.100;6.886;2022-09-16T03:59:54;14.20;49.60
60965;DHT22;46834;51.100;6.886;2022-09-16T04:02:20;14.10;49.50
60965;DHT22;46834;51.100;6.886;2022-09-16T04:04:46;14.10;49.50
60965;DHT22;46834;51.100;6.886;2022-09-16T04:07:11;14.10;49.50
60965;DHT22;46834;51.100;6.886;2022-09-16T04:09:37;14.10;49.50
60965;DHT22;46834;51.100;6.886;2022-09-16T04:12:03;14.00;49.50
60965;DHT22;46834;51.100;6.886;2022-09-16T04:14:32;14.00;49.70
60965;DHT22;46834;51.100;6.886;2022-09-16T04:16:58;14.00;49.80
60965;DHT22;46834;51.100;6.886;2022-09-16T04:19:24;14.00;49.90
60965;DHT22;46834;51.100;6.886;2022-09-16T04:21:50;14.00;50.10
60965;DHT22;46834;51.100;6.886;2022-09-16T04:24:15;14.00;50.10
60965;DHT22;46834;51.100;6.886;2022-09-16T04:26:42;14.00;50.10
60965;DHT22;46834;51.100;6.886;2022-09-16T04:29:08;14.00;50.10
60965;DHT22;46834;51.100;6.886;2022-09-16T04:31:34;14.00;50.10
60965;DHT22;46834;51.100;6.886;2022-09-16T04:34:01;14.00;50.10
60965;DHT22;46834;51.100;6.886;2022-09-16T04:36:27;14.00;50.20
60965;DHT22;46834;51.100;6.886;2022-09-16T04:38:52;14.00;50.20
60965;DHT22;46834;51.100;6.886;2022-09-16T04:41:25;14.00;50.20
60965;DHT22;46834;51.100;6.886;2022-09-16T04:43:53;14.10;50.40
60965;DHT22;46834;51.100;6.886;2022-09-16T04:46:21;14.10;50.30
60965;DHT22;46834;51.100;6.886;2022-09-16T04:48:48;14.10;50.30
60965;DHT22;46834;51.100;6.886;2022-09-16T04:51:15;14.10;50.30
60965;DHT22;46834;51.100;6.886;2022-09-16T04:53:41;14.00;50.30
60965;DHT22;46834;51.100;6.886;2022-09-16T04:58:45;14.10;50.30
60965;DHT22;46834;51.100;6.886;2022-09-16T05:01:14;14.10;51.00
60965;DHT22;46834;51.100;6.886;2022-09-16T05:03:52;14.10;50.30
60965;DHT22;46834;51.100;6.886;2022-09-16T05:06:22;14.10;50.30
60965;DHT22;46834;51.100;6.886;2022-09-16T05:08:52;14.10;50.30
60965;DHT22;46834;51.100;6.886;2022-09-16T05:11:24;14.10;50.20
60965;DHT22;46834;51.100;6.886;2022-09-16T05:13:52;14.10;50.30
60965;DHT22;46834;51.100;6.886;2022-09-16T05:16:20;14.10;50.20
60965;DHT22;46834;51.100;6.886;2022-09-16T05:18:48;14.10;50.20
60965;DHT22;46834;51.100;6.886;2022-09-16T05:21:17;14.10;50.30
60965;DHT22;46834;51.100;6.886;2022-09-16T05:23:45;14.10;50.20
60965;DHT22;46834;51.100;6.886;2022-09-16T05:26:12;14.10;50.20
60965;DHT22;46834;51.100;6.886;2022-09-16T05:28:41;14.00;50.10
60965;DHT22;46834;51.100;6.886;2022-09-16T05:31:19;14.00;50.10
60965;DHT22;46834;51.100;6.886;2022-09-16T05:33:56;14.10;50.30
60965;DHT22;46834;51.100;6.886;2022-09-16T05:36:32;14.10;50.10
60965;DHT22;46834;51.100;6.886;2022-09-16T05:39:00;14.10;50.10
60965;DHT22;46834;51.100;6.886;2022-09-16T05:41:26;14.00;50.00
60965;DHT22;46834;51.100;6.886;2022-09-16T05:43:52;14.10;50.10
60965;DHT22;46834;51.100;6.886;2022-09-16T05:46:20;14.00;50.00
60965;DHT22;46834;51.100;6.886;2022-09-16T05:48:47;14.00;50.10
60965;DHT22;46834;51.100;6.886;2022-09-16T05:51:16;14.00;50.10
60965;DHT22;46834;51.100;6.886;2022-09-16T05:53:43;14.00;50.10
60965;DHT22;46834;51.100;6.886;2022-09-16T05:56:14;14.00;50.10
60965;DHT22;46834;51.100;6.886;2022-09-16T05:58:42;14.00;50.10
60965;DHT22;46834;51.100;6.886;2022-09-16T06:01:14;14.10;50.20
60965;DHT22;46834;51.100;6.886;2022-09-16T06:03:42;14.00;50.20
60965;DHT22;46834;51.100;6.886;2022-09-16T06:06:29;14.10;50.20
60965;DHT22;46834;51.100;6.886;2022-09-16T06:09:08;14.10;50.20
60965;DHT22;46834;51.100;6.886;2022-09-16T06:11:41;14.10;50.20
60965;DHT22;46834;51.100;6.886;2022-09-16T06:14:11;14.20;50.20
60965;DHT22;46834;51.100;6.886;2022-09-16T06:16:38;14.20;50.70
60965;DHT22;46834;51.100;6.886;2022-09-16T06:19:10;14.20;50.10
60965;DHT22;46834;51.100;6.886;2022-09-16T06:21:39;14.20;50.00
60965;DHT22;46834;51.100;6.886;2022-09-16T06:24:05;14.20;50.00
60965;DHT22;46834;51.100;6.886;2022-09-16T06:26:37;14.20;50.00
60965;DHT22;46834;51.100;6.886;2022-09-16T06:29:05;14.20;50.00
60965;DHT22;46834;51.100;6.886;2022-09-16T06:31:31;14.20;50.00
60965;DHT22;46834;51.100;6.886;2022-09-16T06:33:58;14.20;50.00
60965;DHT22;46834;51.100;6.886;2022-09-16T06:36:33;14.20;50.00
60965;DHT22;46834;51.100;6.886;2022-09-16T06:39:01;14.30;50.20
60965;DHT22;46834;51.100;6.886;2022-09-16T06:41:30;14.30;50.10
60965;DHT22;46834;51.100;6.886;2022-09-16T06:43:58;14.30;50.00
60965;DHT22;46834;51.100;6.886;2022-09-16T06:46:26;14.30;50.00
60965;DHT22;46834;51.100;6.886;2022-09-16T06:48:55;14.30;50.10
60965;DHT22;46834;51.100;6.886;2022-09-16T06:51:27;14.40;50.20
60965;DHT22;46834;51.100;6.886;2022-09-16T06:53:59;14.40;50.10
60965;DHT22;46834;51.100;6.886;2022-09-16T06:56:26;14.50;50.20
60965;DHT22;46834;51.100;6.886;2022-09-16T06:58:52;14.50;50.10
60965;DHT22;46834;51.100;6.886;2022-09-16T07:01:27;14.50;50.10
60965;DHT22;46834;51.100;6.886;2022-09-16T07:03:55;14.50;50.00
60965;DHT22;46834;51.100;6.886;2022-09-16T07:06:24;14.50;49.90
60965;DHT22;46834;51.100;6.886;2022-09-16T07:08:54;14.50;50.00
60965;DHT22;46834;51.100;6.886;2022-09-16T07:11:21;14.50;50.00
60965;DHT22;46834;51.100;6.886;2022-09-16T07:13:48;14.60;50.10
60965;DHT22;46834;51.100;6.886;2022-09-16T07:16:21;14.60;50.10
60965;DHT22;46834;51.100;6.886;2022-09-16T07:18:53;14.60;50.10
60965;DHT22;46834;51.100;6.886;2022-09-16T07:21:21;14.70;50.10
60965;DHT22;46834;51.100;6.886;2022-09-16T07:23:50;14.70;50.10
60965;DHT22;46834;51.100;6.886;2022-09-16T07:26:22;14.70;50.00
60965;DHT22;46834;51.100;6.886;2022-09-16T07:28:51;14.70;50.00
60965;DHT22;46834;51.100;6.886;2022-09-16T07:31:23;14.70;49.90
60965;DHT22;46834;51.100;6.886;2022-09-16T07:33:52;14.70;49.90
60965;DHT22;46834;51.100;6.886;2022-09-16T07:36:22;14.70;49.90
60965;DHT22;46834;51.100;6.886;2022-09-16T07:38:50;14.70;49.90
60965;DHT22;46834;51.100;6.886;2022-09-16T07:41:19;14.70;50.00
60965;DHT22;46834;51.100;6.886;2022-09-16T07:43:47;14.70;50.00
60965;DHT22;46834;51.100;6.886;2022-09-16T07:46:15;14.70;50.00
60965;DHT22;46834;51.100;6.886;2022-09-16T07:48:45;14.80;50.10
60965;DHT22;46834;51.100;6.886;2022-09-16T07:51:14;14.80;50.20
60965;DHT22;46834;51.100;6.886;2022-09-16T07:53:43;14.80;50.20
60965;DHT22;46834;51.100;6.886;2022-09-16T07:56:16;14.90;50.30
60965;DHT22;46834;51.100;6.886;2022-09-16T07:58:44;14.90;50.20
60965;DHT22;46834;51.100;6.886;2022-09-16T08:01:11;15.00;50.10
60965;DHT22;46834;51.100;6.886;2022-09-16T08:03:40;15.00;50.10
60965;DHT22;46834;51.100;6.886;2022-09-16T08:06:09;15.00;50.50
60965;DHT22;46834;51.100;6.886;2022-09-16T08:08:46;15.00;49.80
60965;DHT22;46834;51.100;6.886;2022-09-16T08:11:13;15.00;49.70
60965;DHT22;46834;51.100;6.886;2022-09-16T08:13:40;15.00;50.40
60965;DHT22;46834;51.100;6.886;2022-09-16T08:16:10;15.00;49.80
60965;DHT22;46834;51.100;6.886;2022-09-16T08:18:37;15.00;50.00
60965;DHT22;46834;51.100;6.886;2022-09-16T08:21:08;15.00;50.10
60965;DHT22;46834;51.100;6.886;2022-09-16T08:23:36;15.10;50.30
60965;DHT22;46834;51.100;6.886;2022-09-16T08:26:04;15.20;50.50
60965;DHT22;46834;51.100;6.886;2022-09-16T08:28:30;15.20;50.40
60965;DHT22;46834;51.100;6.886;2022-09-16T08:31:00;15.30;50.40
60965;DHT22;46834;51.100;6.886;2022-09-16T08:33:26;15.40;50.50
60965;DHT22;46834;51.100;6.886;2022-09-16T08:36:05;15.50;50.00
60965;DHT22;46834;51.100;6.886;2022-09-16T08:38:35;15.60;49.60
60965;DHT22;46834;51.100;6.886;2022-09-16T08:41:14;15.60;49.80
60965;DHT22;46834;51.100;6.886;2022-09-16T08:44:14;15.70;49.70
60965;DHT22;46834;51.100;6.886;2022-09-16T08:46:53;15.70;49.70
60965;DHT22;46834;51.100;6.886;2022-09-16T08:49:39;15.80;49.80
60965;DHT22;46834;51.100;6.886;2022-09-16T08:52:16;15.90;49.70
60965;DHT22;46834;51.100;6.886;2022-09-16T08:54:51;15.90;49.70
60965;DHT22;46834;51.100;6.886;2022-09-16T08:57:24;16.00;49.60
60965;DHT22;46834;51.100;6.886;2022-09-16T09:00:14;16.00;50.00
60965;DHT22;46834;51.100;6.886;2022-09-16T09:11:06;16.30;49.40
60965;DHT22;46834;51.100;6.886;2022-09-16T09:25:04;16.60;48.50
60965;DHT22;46834;51.100;6.886;2022-09-16T09:31:11;16.50;48.10
60965;DHT22;46834;51.100;6.886;2022-09-16T09:33:55;16.50;47.80
60965;DHT22;46834;51.100;6.886;2022-09-16T09:36:31;16.50;48.10
60965;DHT22;46834;51.100;6.886;2022-09-16T09:39:18;16.50;48.30
60965;DHT22;46834;51.100;6.886;2022-09-16T09:45:04;16.60;47.70
60965;DHT22;46834;51.100;6.886;2022-09-16T09:50:48;16.60;47.60
60965;DHT22;46834;51.100;6.886;2022-09-16T09:53:33;16.60;47.80
60965;DHT22;46834;51.100;6.886;2022-09-16T09:58:43;16.50;47.80
60965;DHT22;46834;51.100;6.886;2022-09-16T10:01:15;16.50;47.50
60965;DHT22;46834;51.100;6.886;2022-09-16T10:03:41;16.50;47.70
60965;DHT22;46834;51.100;6.886;2022-09-16T10:06:09;16.60;47.80
60965;DHT22;46834;51.100;6.886;2022-09-16T10:08:47;16.60;47.80
60965;DHT22;46834;51.100;6.886;2022-09-16T10:11:21;16.70;47.80
60965;DHT22;46834;51.100;6.886;2022-09-16T10:13:54;16.70;48.10
60965;DHT22;46834;51.100;6.886;2022-09-16T10:16:30;16.80;48.20
60965;DHT22;46834;51.100;6.886;2022-09-16T10:19:23;16.90;48.00
60965;DHT22;46834;51.100;6.886;2022-09-16T10:22:06;17.00;47.70
60965;DHT22;46834;51.100;6.886;2022-09-16T10:24:36;17.10;47.60
60965;DHT22;46834;51.100;6.886;2022-09-16T10:27:20;17.20;47.50
60965;DHT22;46834;51.100;6.886;2022-09-16T10:33:04;17.30;47.20
60965;DHT22;46834;51.100;6.886;2022-09-16T10:35:38;17.40;47.00
60965;DHT22;46834;51.100;6.886;2022-09-16T10:38:15;17.30;46.80
60965;DHT22;46834;51.100;6.886;2022-09-16T10:41:23;17.30;46.30
60965;DHT22;46834;51.100;6.886;2022-09-16T10:43:56;17.30;46.40
60965;DHT22;46834;51.100;6.886;2022-09-16T10:46:25;17.20;46.60
60965;DHT22;46834;51.100;6.886;2022-09-16T10:49:01;17.20;46.90
60965;DHT22;46834;51.100;6.886;2022-09-16T10:51:34;17.10;46.90
60965;DHT22;46834;51.100;6.886;2022-09-16T10:54:02;17.10;47.00
60965;DHT22;46834;51.100;6.886;2022-09-16T10:56:45;17.10;47.00
60965;DHT22;46834;51.100;6.886;2022-09-16T10:59:13;17.10;46.90
60965;DHT22;46834;51.100;6.886;2022-09-16T11:24:52;17.00;46.80
60965;DHT22;46834;51.100;6.886;2022-09-16T11:27:52;17.00;47.20
60965;DHT22;46834;51.100;6.886;2022-09-16T11:30:24;17.00;47.80
60965;DHT22;46834;51.100;6.886;2022-09-16T11:36:11;17.10;48.00
60965;DHT22;46834;51.100;6.886;2022-09-16T11:44:54;17.30;47.80
60965;DHT22;46834;51.100;6.886;2022-09-16T11:47:49;17.30;47.60
60965;DHT22;46834;51.100;6.886;2022-09-16T11:50:47;17.40;47.70
60965;DHT22;46834;51.100;6.886;2022-09-16T11:53:49;17.40;47.80
60965;DHT22;46834;51.100;6.886;2022-09-16T11:56:46;17.40;47.70
60965;DHT22;46834;51.100;6.886;2022-09-16T11:59:34;17.50;47.60
60965;DHT22;46834;51.100;6.886;2022-09-16T12:08:18;17.30;46.60
60965;DHT22;46834;51.100;6.886;2022-09-16T12:11:01;17.10;46.10
60965;DHT22;46834;51.100;6.886;2022-09-16T12:13:40;16.80;45.70
60965;DHT22;46834;51.100;6.886;2022-09-16T12:16:33;16.50;45.70
60965;DHT22;46834;51.100;6.886;2022-09-16T12:19:10;16.20;45.70
60965;DHT22;46834;51.100;6.886;2022-09-16T12:21:48;16.00;45.80
60965;DHT22;46834;51.100;6.886;2022-09-16T12:30:00;15.30;46.50
60965;DHT22;46834;51.100;6.886;2022-09-16T12:35:43;15.00;46.90
60965;DHT22;46834;51.100;6.886;2022-09-16T12:38:19;14.90;47.20
60965;DHT22;46834;51.100;6.886;2022-09-16T12:41:09;14.90;47.50
60965;DHT22;46834;51.100;6.886;2022-09-16T12:44:00;14.90;48.10
60965;DHT22;46834;51.100;6.886;2022-09-16T12:55:39;15.20;48.60
60965;DHT22;46834;51.100;6.886;2022-09-16T12:58:45;15.30;48.50
60965;DHT22;46834;51.100;6.886;2022-09-16T13:01:19;15.40;48.90
60965;DHT22;46834;51.100;6.886;2022-09-16T13:03:55;15.40;48.70
60965;DHT22;46834;51.100;6.886;2022-09-16T13:06:30;15.50;48.90
60965;DHT22;46834;51.100;6.886;2022-09-16T13:09:16;15.60;48.90
60965;DHT22;46834;51.100;6.886;2022-09-16T13:12:00;15.70;49.00
60965;DHT22;46834;51.100;6.886;2022-09-16T13:14:33;15.70;49.00
60965;DHT22;46834;51.100;6.886;2022-09-16T13:17:09;15.80;48.90
60965;DHT22;46834;51.100;6.886;2022-09-16T13:19:40;15.80;48.90
60965;DHT22;46834;51.100;6.886;2022-09-16T13:22:24;15.90;48.80
60965;DHT22;46834;51.100;6.886;2022-09-16T13:25:06;15.90;48.90
60965;DHT22;46834;51.100;6.886;2022-09-16T13:30:28;16.00;48.70
60965;DHT22;46834;51.100;6.886;2022-09-16T13:38:55;16.10;48.30
60965;DHT22;46834;51.100;6.886;2022-09-16T13:41:45;16.10;48.30
60965;DHT22;46834;51.100;6.886;2022-09-16T13:47:17;16.20;48.10
60965;DHT22;46834;51.100;6.886;2022-09-16T13:50:15;16.10;47.80
60965;DHT22;46834;51.100;6.886;2022-09-16T13:52:46;16.20;47.70
60965;DHT22;46834;51.100;6.886;2022-09-16T13:55:25;16.20;47.90
60965;DHT22;46834;51.100;6.886;2022-09-16T13:58:16;16.20;47.60
60965;DHT22;46834;51.100;6.886;2022-09-16T14:01:01;16.20;47.80
60965;DHT22;46834;51.100;6.886;2022-09-16T14:03:56;16.20;47.60
60965;DHT22;46834;51.100;6.886;2022-09-16T14:06:43;16.20;47.80
60965;DHT22;46834;51.100;6.886;2022-09-16T14:09:53;16.20;47.90
60965;DHT22;46834;51.100;6.886;2022-09-16T14:15:21;16.30;48.10
60965;DHT22;46834;51.100;6.886;2022-09-16T14:17:52;16.40;48.20
60965;DHT22;46834;51.100;6.886;2022-09-16T14:20:24;16.40;47.90
60965;DHT22;46834;51.100;6.886;2022-09-16T14:23:16;16.40;47.70
60965;DHT22;46834;51.100;6.886;2022-09-16T14:25:43;16.40;47.10
60965;DHT22;46834;51.100;6.886;2022-09-16T14:28:16;16.40;47.30
60965;DHT22;46834;51.100;6.886;2022-09-16T14:30:57;16.40;47.20
60965;DHT22;46834;51.100;6.886;2022-09-16T14:33:39;16.30;47.30
60965;DHT22;46834;51.100;6.886;2022-09-16T14:36:19;16.30;47.20
60965;DHT22;46834;51.100;6.886;2022-09-16T14:41:32;16.20;47.50
60965;DHT22;46834;51.100;6.886;2022-09-16T14:46:45;16.20;47.70
60965;DHT22;46834;51.100;6.886;2022-09-16T14:49:16;16.20;47.60
60965;DHT22;46834;51.100;6.886;2022-09-16T14:51:56;16.20;47.60
60965;DHT22;46834;51.100;6.886;2022-09-16T14:54:25;16.10;47.50
60965;DHT22;46834;51.100;6.886;2022-09-16T14:56:59;16.10;47.60
60965;DHT22;46834;51.100;6.886;2022-09-16T14:59:33;16.10;47.50
60965;DHT22;46834;51.100;6.886;2022-09-16T15:02:12;16.10;47.30
60965;DHT22;46834;51.100;6.886;2022-09-16T15:04:49;16.20;47.10
60965;DHT22;46834;51.100;6.886;2022-09-16T15:07:22;16.20;46.70
60965;DHT22;46834;51.100;6.886;2022-09-16T15:12:29;16.30;47.00
60965;DHT22;46834;51.100;6.886;2022-09-16T15:14:57;16.30;46.60
60965;DHT22;46834;51.100;6.886;2022-09-16T15:17:39;16.30;46.80
60965;DHT22;46834;51.100;6.886;2022-09-16T15:20:16;16.20;46.50
60965;DHT22;46834;51.100;6.886;2022-09-16T15:22:45;16.30;46.50
60965;DHT22;46834;51.100;6.886;2022-09-16T15:25:25;16.30;46.30
60965;DHT22;46834;51.100;6.886;2022-09-16T15:28:05;16.30;45.90
60965;DHT22;46834;51.100;6.886;2022-09-16T15:30:33;16.20;45.70
60965;DHT22;46834;51.100;6.886;2022-09-16T15:32:59;16.10;45.90
60965;DHT22;46834;51.100;6.886;2022-09-16T15:35:28;16.10;46.00
60965;DHT22;46834;51.100;6.886;2022-09-16T15:38:10;16.00;46.00
60965;DHT22;46834;51.100;6.886;2022-09-16T15:40:39;16.00;46.10
60965;DHT22;46834;51.100;6.886;2022-09-16T15:43:19;15.90;46.20
60965;DHT22;46834;51.100;6.886;2022-09-16T15:46:03;15.80;46.30
60965;DHT22;46834;51.100;6.886;2022-09-16T15:48:50;15.80;46.20
60965;DHT22;46834;51.100;6.886;2022-09-16T15:53:56;15.70;46.40
60965;DHT22;46834;51.100;6.886;2022-09-16T15:56:56;15.70;46.40
60965;DHT22;46834;51.100;6.886;2022-09-16T16:02:05;15.60;46.50
60965;DHT22;46834;51.100;6.886;2022-09-16T16:04:49;15.60;46.50
60965;DHT22;46834;51.100;6.886;2022-09-16T16:12:46;15.60;46.60
60965;DHT22;46834;51.100;6.886;2022-09-16T16:15:24;15.60;46.50
60965;DHT22;46834;51.100;6.886;2022-09-16T16:17:53;15.60;46.80
60965;DHT22;46834;51.100;6.886;2022-09-16T16:20:23;15.60;46.50
60965;DHT22;46834;51.100;6.886;2022-09-16T16:22:49;15.50;46.50
60965;DHT22;46834;51.100;6.886;2022-09-16T16:25:15;15.50;46.50
60965;DHT22;46834;51.100;6.886;2022-09-16T16:27:41;15.60;46.50
60965;DHT22;46834;51.100;6.886;2022-09-16T16:30:07;15.50;46.50
60965;DHT22;46834;51.100;6.886;2022-09-16T16:32:34;15.50;46.50
60965;DHT22;46834;51.100;6.886;2022-09-16T16:35:03;15.50;46.60
60965;DHT22;46834;51.100;6.886;2022-09-16T16:37:29;15.50;46.60
60965;DHT22;46834;51.100;6.886;2022-09-16T16:39:55;15.50;46.60
60965;DHT22;46834;51.100;6.886;2022-09-16T16:42:22;15.50;46.50
60965;DHT22;46834;51.100;6.886;2022-09-16T16:44:48;15.50;46.60
60965;DHT22;46834;51.100;6.886;2022-09-16T16:47:14;15.50;46.60
60965;DHT22;46834;51.100;6.886;2022-09-16T16:49:40;15.50;46.60
60965;DHT22;46834;51.100;6.886;2022-09-16T16:52:07;15.50;46.60
60965;DHT22;46834;51.100;6.886;2022-09-16T16:54:33;15.50;46.60
60965;DHT22;46834;51.100;6.886;2022-09-16T16:56:59;15.40;46.50
60965;DHT22;46834;51.100;6.886;2022-09-16T16:59:26;15.40;46.40
60965;DHT22;46834;51.100;6.886;2022-09-16T17:01:54;15.40;46.30
60965;DHT22;46834;51.100;6.886;2022-09-16T17:04:21;15.40;46.20
60965;DHT22;46834;51.100;6.886;2022-09-16T17:06:47;15.30;46.20
60965;DHT22;46834;51.100;6.886;2022-09-16T17:09:15;15.30;46.30
60965;DHT22;46834;51.100;6.886;2022-09-16T17:14:21;15.30;46.20
60965;DHT22;46834;51.100;6.886;2022-09-16T17:16:49;15.20;46.20
60965;DHT22;46834;51.100;6.886;2022-09-16T17:19:17;15.20;46.30
60965;DHT22;46834;51.100;6.886;2022-09-16T17:21:44;15.10;46.30
60965;DHT22;46834;51.100;6.886;2022-09-16T17:24:11;15.10;46.40
60965;DHT22;46834;51.100;6.886;2022-09-16T17:26:38;15.00;46.40
60965;DHT22;46834;51.100;6.886;2022-09-16T17:29:04;15.00;46.40
60965;DHT22;46834;51.100;6.886;2022-09-16T17:31:31;14.90;46.50
60965;DHT22;46834;51.100;6.886;2022-09-16T17:34:03;14.90;46.60
60965;DHT22;46834;51.100;6.886;2022-09-16T17:36:35;14.80;46.60
60965;DHT22;46834;51.100;6.886;2022-09-16T17:39:19;14.80;46.70
60965;DHT22;46834;51.100;6.886;2022-09-16T17:41:47;14.70;46.80
60965;DHT22;46834;51.100;6.886;2022-09-16T17:44:14;14.70;46.70
60965;DHT22;46834;51.100;6.886;2022-09-16T17:46:41;14.60;46.80
60965;DHT22;46834;51.100;6.886;2022-09-16T17:49:15;14.60;46.90
60965;DHT22;46834;51.100;6.886;2022-09-16T17:51:43;14.60;47.00
60965;DHT22;46834;51.100;6.886;2022-09-16T17:54:09;14.50;46.90
60965;DHT22;46834;51.100;6.886;2022-09-16T17:56:35;14.50;47.00
60965;DHT22;46834;51.100;6.886;2022-09-16T17:59:02;14.50;47.00
60965;DHT22;46834;51.100;6.886;2022-09-16T18:01:28;14.50;47.10
60965;DHT22;46834;51.100;6.886;2022-09-16T18:03:55;14.40;47.10
60965;DHT22;46834;51.100;6.886;2022-09-16T18:06:27;14.40;47.80
60965;DHT22;46834;51.100;6.886;2022-09-16T18:08:58;14.40;47.40
60965;DHT22;46834;51.100;6.886;2022-09-16T18:11:25;14.30;47.30
60965;DHT22;46834;51.100;6.886;2022-09-16T18:13:59;14.30;47.40
60965;DHT22;46834;51.100;6.886;2022-09-16T18:16:27;14.20;47.50
60965;DHT22;46834;51.100;6.886;2022-09-16T18:18:55;14.20;47.40
60965;DHT22;46834;51.100;6.886;2022-09-16T18:21:23;14.20;47.50
60965;DHT22;46834;51.100;6.886;2022-09-16T18:23:55;14.10;47.40
60965;DHT22;46834;51.100;6.886;2022-09-16T18:26:23;14.10;47.60
60965;DHT22;46834;51.100;6.886;2022-09-16T18:28:50;14.10;47.60
60965;DHT22;46834;51.100;6.886;2022-09-16T18:31:19;14.10;47.70
60965;DHT22;46834;51.100;6.886;2022-09-16T18:33:45;14.00;47.70
60965;DHT22;46834;51.100;6.886;2022-09-16T18:36:13;14.00;47.60
60965;DHT22;46834;51.100;6.886;2022-09-16T18:38:41;14.10;47.80
60965;DHT22;46834;51.100;6.886;2022-09-16T18:41:15;14.00;47.70
60965;DHT22;46834;51.100;6.886;2022-09-16T18:43:44;14.00;47.80
60965;DHT22;46834;51.100;6.886;2022-09-16T18:46:20;14.00;47.70
60965;DHT22;46834;51.100;6.886;2022-09-16T18:48:48;13.90;47.70
60965;DHT22;46834;51.100;6.886;2022-09-16T18:51:20;13.90;47.60
60965;DHT22;46834;51.100;6.886;2022-09-16T18:53:58;13.90;47.60
60965;DHT22;46834;51.100;6.886;2022-09-16T18:56:28;13.90;47.70
60965;DHT22;46834;51.100;6.886;2022-09-16T18:59:05;13.80;47.60
60965;DHT22;46834;51.100;6.886;2022-09-16T19:01:36;13.80;47.60
60965;DHT22;46834;51.100;6.886;2022-09-16T19:04:08;13.70;47.60
60965;DHT22;46834;51.100;6.886;2022-09-16T19:06:43;13.70;47.80
60965;DHT22;46834;51.100;6.886;2022-09-16T19:09:13;13.70;47.70
60965;DHT22;46834;51.100;6.886;2022-09-16T19:11:41;13.70;47.80